Terminal Aerodrome Forecast
Issued by NWS Boston, MA

Current Version | Previous Version | Text Only | Print | Product List | Glossary On
Versions: 1 2 3 4 5 6 7 8 9 10 11 12 13 14 15 16 17 18 19 20 21 22 23 24 25 26 27 28 29 30 31 32 33 34 35 36 37 38 39 40 41 42 43 44
000
FTUS41 KBOX 110922 AAA
TAFPVD
TAF AMD
KPVD 110922Z 1109/1206 29005KT P6SM SCT050 BKN120
     FM111100 29005KT P6SM VCSH BKN060
      TEMPO 1111/1115 3SM -SHSN BKN025
     FM111500 28011G22KT P6SM VCSH BKN060
     FM111700 28013G25KT P6SM VCSH BKN035
     FM112000 29014G27KT P6SM VCSH BKN035
     FM112300 29013G27KT P6SM SCT070=

USA.gov is the U.S. government's official web portal to all federal, state and local government web resources and services.